Time;durP1;ratioP1;P1;durP2;ratioP2;P2;SDS_P1;SDS_P2;PMS_P1;PMS_P2;Temp;Humidity;BMP_temperature;BMP_pressure;BME280_temperature;BME280_humidity;BME280_pressure;Samples;Min_cycle;Max_cycle;Signal;HPM_P1;HPM_P2
2022/09/18 00:01:00;;;;;;;29.35;14.13;;;;;;;16.83;100.00;98090.19;1650767;86;21138;-71
2022/09/18 00:03:27;;;;;;;33.63;17.82;;;;;;;16.88;100.00;98080.05;1650707;87;21103;-69
2022/09/18 00:05:55;;;;;;;27.27;16.80;;;;;;;16.89;100.00;98084.41;1650843;86;20960;-70
2022/09/18 00:08:22;;;;;;;33.33;18.42;;;;;;;16.81;100.00;98091.98;1623950;87;21068;-71
2022/09/18 00:10:49;;;;;;;38.70;18.40;;;;;;;16.81;100.00;98092.56;1650807;87;21558;-68
2022/09/18 00:13:17;;;;;;;32.17;19.75;;;;;;;16.83;100.00;98088.80;1650791;86;20935;-72
2022/09/18 00:15:43;;;;;;;35.78;18.67;;;;;;;16.81;100.00;98081.44;1650655;87;21012;-71
2022/09/18 00:18:11;;;;;;;29.20;18.85;;;;;;;16.80;100.00;98077.88;1610503;87;20937;-72
2022/09/18 00:20:40;;;;;;;31.75;18.07;;;;;;;16.85;100.00;98075.29;1650818;87;20981;-67
2022/09/18 00:23:09;;;;;;;27.15;17.52;;;;;;;17.03;100.00;98077.46;1650705;86;20983;-70
2022/09/18 00:25:35;;;;;;;29.25;16.85;;;;;;;17.03;100.00;98069.70;1650871;87;21153;-72
2022/09/18 00:28:02;;;;;;;29.65;16.82;;;;;;;17.04;100.00;98060.95;1650817;87;21488;-70
2022/09/18 00:30:30;;;;;;;36.50;17.02;;;;;;;17.06;100.00;98054.98;1650797;86;21497;-71
2022/09/18 00:32:57;;;;;;;27.80;16.20;;;;;;;17.08;100.00;98048.44;1650691;87;21005;-71
2022/09/18 00:35:24;;;;;;;26.42;16.00;;;;;;;17.08;100.00;98047.05;1650818;86;21056;-72
2022/09/18 00:37:51;;;;;;;23.50;13.68;;;;;;;17.07;100.00;98039.09;1654229;86;22074;-67
2022/09/18 00:40:17;;;;;;;21.93;14.33;;;;;;;17.07;100.00;98030.75;1650563;86;20954;-72
2022/09/18 00:42:44;;;;;;;24.87;14.58;;;;;;;17.03;100.00;98023.21;1650643;87;20940;-71
2022/09/18 00:45:10;;;;;;;20.92;13.43;;;;;;;17.08;100.00;98030.34;1650693;87;20901;-67
2022/09/18 00:47:46;;;;;;;21.12;15.00;;;;;;;17.04;100.00;98024.79;1650879;87;21465;-71
2022/09/18 00:50:21;;;;;;;24.10;14.05;;;;;;;17.04;100.00;98014.28;1654319;86;21719;-70
2022/09/18 00:53:02;;;;;;;22.60;14.20;;;;;;;17.07;100.00;98012.08;1650624;87;20989;-73
2022/09/18 00:55:31;;;;;;;19.77;14.20;;;;;;;17.01;100.00;98006.70;1650684;87;20900;-73
2022/09/18 00:57:59;;;;;;;22.50;13.88;;;;;;;16.99;100.00;98006.34;1624248;87;20992;-71
2022/09/18 01:00:26;;;;;;;27.25;15.98;;;;;;;16.96;100.00;98008.50;1632220;85;21068;-74
2022/09/18 01:02:52;;;;;;;22.07;14.15;;;;;;;16.99;100.00;98014.06;1650767;86;21151;-74
2022/09/18 01:05:58;;;;;;;27.13;15.38;;;;;;;17.04;100.00;98010.11;1650617;86;20932;-73
2022/09/18 01:08:46;;;;;;;29.75;15.78;;;;;;;17.09;100.00;97997.77;1650661;86;21529;-74
2022/09/18 01:11:43;;;;;;;19.95;15.32;;;;;;;17.09;100.00;97994.98;1650697;86;21173;-71
2022/09/18 01:14:30;;;;;;;26.57;16.77;;;;;;;17.02;100.00;97997.19;1650772;87;20941;-74
2022/09/18 01:17:21;;;;;;;25.62;15.40;;;;;;;17.01;100.00;97991.41;1632484;86;21262;-74
2022/09/18 01:20:21;;;;;;;24.47;14.50;;;;;;;16.91;100.00;97991.05;1650272;86;21414;-71
2022/09/18 01:23:39;;;;;;;18.98;13.88;;;;;;;16.94;100.00;97984.49;1654201;86;20976;-71
2022/09/18 01:26:29;;;;;;;20.27;14.80;;;;;;;16.95;100.00;97975.74;1631984;87;21000;-70
2022/09/18 01:29:07;;;;;;;16.00;12.90;;;;;;;16.95;100.00;97965.20;1650770;85;21037;-72
2022/09/18 01:31:45;;;;;;;14.65;12.10;;;;;;;16.89;100.00;97956.47;1650677;86;21505;-70
2022/09/18 01:34:22;;;;;;;16.55;12.00;;;;;;;16.93;100.00;97954.48;1649998;86;21576;-72
2022/09/18 01:36:53;;;;;;;14.43;10.98;;;;;;;16.91;100.00;97952.11;1650611;86;20965;-71
2022/09/18 01:39:42;;;;;;;14.03;8.50;;;;;;;16.80;100.00;97943.00;1650402;86;20965;-73
2022/09/18 01:42:09;;;;;;;10.75;8.30;;;;;;;16.76;100.00;97937.45;1650789;86;20968;-72
2022/09/18 01:44:36;;;;;;;10.30;7.33;;;;;;;16.69;100.00;97944.99;1650689;87;21057;-73
2022/09/18 01:47:05;;;;;;;12.47;7.58;;;;;;;16.70;100.00;97951.55;1650911;87;20976;-73
2022/09/18 01:49:42;;;;;;;9.93;7.75;;;;;;;16.70;100.00;97943.81;1650624;87;21568;-73
2022/09/18 01:52:13;;;;;;;9.48;7.47;;;;;;;16.69;100.00;97930.50;1650641;87;20888;-74
2022/09/18 01:54:43;;;;;;;10.70;7.92;;;;;;;16.63;100.00;97923.77;1651031;86;21523;-69
2022/09/18 01:57:25;;;;;;;9.58;7.53;;;;;;;16.53;100.00;97917.81;1650679;86;21828;-68
2022/09/18 01:59:57;;;;;;;12.55;8.53;;;;;;;16.57;100.00;97915.03;1650839;86;20964;-71
2022/09/18 02:03:04;;;;;;;15.63;9.55;;;;;;;16.53;100.00;97912.87;1650605;86;20940;-70
2022/09/18 02:05:41;;;;;;;17.87;11.15;;;;;;;16.48;100.00;97912.66;1654231;86;20933;-74
2022/09/18 02:08:27;;;;;;;25.75;14.28;;;;;;;16.50;100.00;97917.81;1650615;85;20861;-66
2022/09/18 02:11:07;;;;;;;26.07;16.80;;;;;;;16.53;100.00;97912.26;1650727;86;21143;-69
2022/09/18 02:13:49;;;;;;;27.62;16.77;;;;;;;16.54;100.00;97902.74;1650755;87;20952;-69
2022/09/18 02:16:31;;;;;;;24.85;17.02;;;;;;;16.44;100.00;97910.50;1650795;87;20929;-72
2022/09/18 02:19:05;;;;;;;23.90;14.38;;;;;;;16.37;100.00;97896.61;1650761;86;21040;-72
2022/09/18 02:21:35;;;;;;;19.60;14.68;;;;;;;16.40;100.00;97906.33;1650502;86;20995;-72
2022/09/18 02:24:06;;;;;;;17.73;12.73;;;;;;;16.42;100.00;97906.73;1650633;87;21110;-71
2022/09/18 02:26:35;;;;;;;17.25;10.90;;;;;;;16.35;100.00;97894.81;1650730;86;20892;-72
2022/09/18 02:29:01;;;;;;;15.93;10.68;;;;;;;16.35;100.00;97892.84;1650599;87;20988;-68
2022/09/18 02:31:29;;;;;;;12.03;9.35;;;;;;;16.25;100.00;97890.86;1650833;86;20941;-70
2022/09/18 02:33:57;;;;;;;10.90;8.40;;;;;;;16.30;100.00;97891.27;1650617;86;21031;-68
2022/09/18 02:36:46;;;;;;;12.20;7.37;;;;;;;16.40;100.00;97882.70;1650686;86;21619;-65
2022/09/18 02:39:51;;;;;;;7.50;6.00;;;;;;;16.42;100.00;97873.97;1650551;87;20992;-69
2022/09/18 02:42:53;;;;;;;8.13;6.30;;;;;;;16.37;100.00;97854.92;1650592;87;20921;-68
2022/09/18 02:45:50;;;;;;;10.63;6.15;;;;;;;16.28;100.00;97842.23;1650614;86;20960;-72
2022/09/18 02:48:37;;;;;;;7.00;6.05;;;;;;;16.42;100.00;97823.35;1650675;86;20889;-73
2022/09/18 02:51:41;;;;;;;7.15;5.97;;;;;;;16.34;100.00;97828.73;1650705;86;21458;-69
2022/09/18 02:54:15;;;;;;;7.83;5.97;;;;;;;16.30;100.00;97826.55;1650810;86;21052;-70
2022/09/18 02:56:53;;;;;;;7.40;5.72;;;;;;;16.31;100.00;97817.01;1651128;86;20987;-73
2022/09/18 02:59:28;;;;;;;6.75;5.70;;;;;;;16.36;100.00;97811.66;1650485;87;22138;-72
2022/09/18 03:01:56;;;;;;;7.65;6.55;;;;;;;16.27;100.00;97805.13;1650650;85;21056;-71
2022/09/18 03:04:25;;;;;;;7.55;6.08;;;;;;;16.24;100.00;97798.37;1654130;86;21334;-67
2022/09/18 03:06:55;;;;;;;6.90;5.50;;;;;;;16.25;100.00;97787.47;1650827;86;21519;-68
2022/09/18 03:09:23;;;;;;;6.10;5.50;;;;;;;16.20;100.00;97788.47;1650640;86;21604;-70
2022/09/18 03:11:52;;;;;;;6.80;5.60;;;;;;;16.18;100.00;97787.48;1650640;86;21418;-65
2022/09/18 03:14:21;;;;;;;7.83;5.72;;;;;;;16.19;100.00;97780.72;1650581;87;21434;-69
2022/09/18 03:16:48;;;;;;;5.95;5.30;;;;;;;16.15;100.00;97782.14;1650643;85;21237;-71
2022/09/18 03:19:15;;;;;;;5.80;5.25;;;;;;;16.18;100.00;97778.56;1650605;87;20944;-66
2022/09/18 03:21:42;;;;;;;6.20;5.17;;;;;;;16.21;100.00;97776.15;1650565;87;21001;-74
2022/09/18 03:24:11;;;;;;;9.03;5.30;;;;;;;16.17;100.00;97768.63;1650538;87;21549;-67
2022/09/18 03:26:41;;;;;;;5.62;4.87;;;;;;;16.14;100.00;97768.03;1650698;86;20969;-72
2022/09/18 03:29:10;;;;;;;6.25;4.22;;;;;;;16.17;100.00;97765.06;1650595;86;21859;-65
2022/09/18 03:31:39;;;;;;;9.38;5.15;;;;;;;16.15;100.00;97754.36;1650639;86;20849;-72
2022/09/18 03:34:07;;;;;;;10.28;4.95;;;;;;;16.16;100.00;97753.74;1650567;87;21009;-72
2022/09/18 03:36:35;;;;;;;5.03;4.53;;;;;;;16.13;100.00;97754.55;1650727;87;21004;-72
2022/09/18 03:39:02;;;;;;;5.53;4.95;;;;;;;15.99;100.00;97745.06;1650774;87;21548;-69
2022/09/18 03:41:29;;;;;;;5.05;4.20;;;;;;;16.01;100.00;97752.41;1650730;86;21154;-73
2022/09/18 03:43:56;;;;;;;5.72;4.53;;;;;;;16.14;100.00;97747.79;1650870;86;21501;-71
2022/09/18 03:46:24;;;;;;;4.87;4.25;;;;;;;16.17;100.00;97743.62;1650750;87;20992;-72
2022/09/18 03:48:53;;;;;;;4.75;3.47;;;;;;;16.14;100.00;97741.64;1650715;86;21064;-69
2022/09/18 03:51:22;;;;;;;10.78;4.20;;;;;;;16.21;100.00;97740.03;1650865;87;20901;-72
2022/09/18 03:53:50;;;;;;;5.75;4.17;;;;;;;16.24;100.00;97735.86;1650721;87;21253;-74
2022/09/18 03:56:37;;;;;;;9.38;4.08;;;;;;;16.26;100.00;97731.28;1648734;86;20988;-71
2022/09/18 03:59:23;;;;;;;4.87;4.37;;;;;;;16.32;100.00;97724.13;1650823;87;20957;-70
2022/09/18 04:01:52;;;;;;;4.62;3.85;;;;;;;16.26;100.00;97722.36;1650889;85;21004;-70
2022/09/18 04:04:28;;;;;;;4.80;4.33;;;;;;;16.25;100.00;97720.78;1650724;87;21469;-70
2022/09/18 04:07:13;;;;;;;5.05;3.75;;;;;;;16.28;100.00;97717.20;1650897;86;21078;-72
2022/09/18 04:09:47;;;;;;;4.22;3.83;;;;;;;16.26;100.00;97715.41;1642657;86;21421;-71
2022/09/18 04:12:19;;;;;;;6.90;3.85;;;;;;;16.22;100.00;97709.09;1650853;87;20905;-69
2022/09/18 04:14:47;;;;;;;3.95;3.65;;;;;;;16.27;100.00;97698.95;1650710;87;21445;-71
2022/09/18 04:17:14;;;;;;;5.97;4.05;;;;;;;16.30;100.00;97693.97;1650882;87;20991;-70
2022/09/18 04:19:45;;;;;;;4.62;3.40;;;;;;;16.32;100.00;97684.43;1650687;87;21155;-68
2022/09/18 04:22:11;;;;;;;3.58;3.27;;;;;;;16.35;100.00;97679.45;1650812;87;20977;-68
2022/09/18 04:24:38;;;;;;;3.45;3.15;;;;;;;16.36;100.00;97675.49;1650773;87;20977;-69
2022/09/18 04:27:06;;;;;;;3.87;3.47;;;;;;;16.38;100.00;97662.77;1650810;86;21009;-65
2022/09/18 04:29:33;;;;;;;3.60;3.08;;;;;;;16.41;100.00;97655.63;1650754;86;21576;-69
2022/09/18 04:32:00;;;;;;;4.85;3.08;;;;;;;16.41;100.00;97644.50;1650807;86;21968;-67
2022/09/18 04:34:29;;;;;;;2.60;2.40;;;;;;;16.36;100.00;97631.03;1650585;86;22808;-71
2022/09/18 04:36:56;;;;;;;2.52;2.33;;;;;;;16.32;100.00;97631.64;1650764;87;21016;-72
2022/09/18 04:39:27;;;;;;;2.70;2.45;;;;;;;16.35;100.00;97632.21;1650757;87;20987;-70
2022/09/18 04:41:55;;;;;;;3.10;2.50;;;;;;;16.39;100.00;97620.48;1650980;87;20924;-71
2022/09/18 04:44:23;;;;;;;3.65;2.67;;;;;;;16.35;100.00;97626.06;1650872;86;21119;-71
2022/09/18 04:46:50;;;;;;;3.12;2.47;;;;;;;16.29;100.00;97627.70;1650545;87;21013;-70
2022/09/18 04:49:19;;;;;;;2.17;1.98;;;;;;;16.30;100.00;97630.06;1650819;87;20959;-67
2022/09/18 04:51:45;;;;;;;3.00;2.60;;;;;;;16.30;100.00;97622.32;1650724;86;21012;-70
2022/09/18 04:54:15;;;;;;;2.85;2.60;;;;;;;16.35;100.00;97615.54;1650777;86;21060;-71
2022/09/18 04:56:43;;;;;;;3.35;2.70;;;;;;;16.38;100.00;97609.16;1651011;86;21242;-67
2022/09/18 04:59:10;;;;;;;3.65;2.15;;;;;;;16.41;100.00;97612.55;1650713;86;20886;-72
2022/09/18 05:01:39;;;;;;;3.22;2.92;;;;;;;16.45;100.00;97616.67;1650716;87;20960;-71
2022/09/18 05:04:11;;;;;;;7.17;3.05;;;;;;;16.45;100.00;97611.91;1650777;87;20905;-66
2022/09/18 05:06:42;;;;;;;3.10;2.80;;;;;;;16.47;100.00;97608.72;1650866;86;20897;-70
2022/09/18 05:09:09;;;;;;;3.98;2.80;;;;;;;16.50;100.00;97602.34;1650798;87;21893;-71
2022/09/18 05:11:36;;;;;;;3.92;2.67;;;;;;;16.50;100.00;97600.95;1650772;87;20936;-67
2022/09/18 05:14:04;;;;;;;7.17;3.75;;;;;;;16.37;100.00;97582.59;1650648;86;20960;-73
2022/09/18 05:16:32;;;;;;;5.87;3.67;;;;;;;16.40;100.00;97577.59;1650834;87;21027;-70
2022/09/18 05:19:01;;;;;;;7.80;4.75;;;;;;;16.35;100.00;97572.47;1651161;86;21428;-65
2022/09/18 05:21:31;;;;;;;7.60;4.17;;;;;;;16.38;100.00;97570.26;1650719;87;21162;-71
2022/09/18 05:24:00;;;;;;;8.45;4.42;;;;;;;16.40;100.00;97562.31;1650870;87;20909;-69
2022/09/18 05:26:30;;;;;;;8.18;4.35;;;;;;;16.43;100.00;97562.88;1650644;86;21083;-71
2022/09/18 05:28:58;;;;;;;10.32;4.53;;;;;;;16.43;100.00;97562.88;1650742;85;20940;-72
2022/09/18 05:31:26;;;;;;;8.03;4.33;;;;;;;16.38;100.00;97553.59;1650862;87;20976;-72
2022/09/18 05:33:54;;;;;;;5.40;3.95;;;;;;;16.38;100.00;97554.39;1650642;87;21106;-73
2022/09/18 05:36:20;;;;;;;7.53;3.77;;;;;;;16.37;100.00;97549.23;1650552;87;21028;-73
2022/09/18 05:38:50;;;;;;;6.12;3.62;;;;;;;16.32;100.00;97544.11;1654248;86;20969;-69
2022/09/18 05:41:17;;;;;;;6.78;3.27;;;;;;;16.32;100.00;97542.72;1650612;86;21021;-72
2022/09/18 05:43:44;;;;;;;7.37;2.65;;;;;;;16.28;100.00;97545.52;1654374;86;21059;-68
2022/09/18 05:46:11;;;;;;;9.13;2.83;;;;;;;16.33;100.00;97538.73;1650744;86;21151;-73
2022/09/18 05:48:42;;;;;;;4.42;3.00;;;;;;;16.34;100.00;97538.35;1650566;86;20998;-72
2022/09/18 05:51:09;;;;;;;3.30;2.87;;;;;;;16.36;100.00;97528.98;1650862;87;20979;-71
2022/09/18 05:53:37;;;;;;;6.30;3.47;;;;;;;16.35;100.00;97532.17;1650658;87;21603;-69
2022/09/18 05:56:05;;;;;;;3.65;2.95;;;;;;;16.28;100.00;97530.23;1650740;86;20952;-70
2022/09/18 05:58:32;;;;;;;2.92;2.62;;;;;;;16.36;100.00;97527.59;1650593;86;21139;-72
2022/09/18 06:01:00;;;;;;;3.52;2.85;;;;;;;16.34;100.00;97523.07;1650778;87;20932;-71
2022/09/18 06:03:29;;;;;;;3.60;3.25;;;;;;;16.35;100.00;97523.84;1650559;86;21410;-73
2022/09/18 06:05:57;;;;;;;4.92;2.83;;;;;;;16.32;100.00;97528.23;1650711;86;21017;-68
2022/09/18 06:08:24;;;;;;;3.37;3.08;;;;;;;16.33;100.00;97522.06;1650659;87;21071;-69
2022/09/18 06:10:52;;;;;;;3.40;3.10;;;;;;;16.33;100.00;97522.86;1650770;85;21832;-67
2022/09/18 06:13:18;;;;;;;3.25;2.95;;;;;;;16.26;100.00;97502.06;1650578;87;20917;-71
2022/09/18 06:15:51;;;;;;;3.92;3.52;;;;;;;16.19;100.00;97508.46;1650576;86;20942;-67
2022/09/18 06:18:19;;;;;;;4.60;3.50;;;;;;;16.24;100.00;97498.31;1650736;86;20985;-72
2022/09/18 06:20:54;;;;;;;3.20;2.95;;;;;;;16.29;100.00;97494.33;1650681;87;21021;-64
2022/09/18 06:23:24;;;;;;;4.17;3.37;;;;;;;16.29;100.00;97493.70;1650799;87;21151;-72
2022/09/18 06:26:00;;;;;;;4.87;3.70;;;;;;;16.25;100.00;97492.96;1650349;86;21637;-75
2022/09/18 06:28:32;;;;;;;3.72;3.40;;;;;;;16.32;100.00;97494.89;1650783;86;20947;-66
2022/09/18 06:31:01;;;;;;;3.05;2.75;;;;;;;16.34;100.00;97486.15;1650708;87;20972;-66
2022/09/18 06:33:31;;;;;;;4.20;3.17;;;;;;;16.33;100.00;97482.57;1650598;86;20949;-70
2022/09/18 06:35:59;;;;;;;3.42;3.12;;;;;;;16.36;100.00;97485.15;1650626;87;21156;-68
2022/09/18 06:38:29;;;;;;;4.00;3.20;;;;;;;16.40;100.00;97478.36;1650775;86;20941;-72
2022/09/18 06:40:56;;;;;;;4.10;3.40;;;;;;;16.38;100.00;97478.56;1650693;87;20944;-71
2022/09/18 06:43:43;;;;;;;4.25;3.65;;;;;;;16.43;100.00;97476.14;1650592;86;21095;-73
2022/09/18 06:46:11;;;;;;;4.00;3.50;;;;;;;16.43;100.00;97474.75;1650955;86;20928;-69
2022/09/18 06:48:40;;;;;;;4.00;3.60;;;;;;;16.43;100.00;97466.41;1650696;86;21159;-67
2022/09/18 06:51:08;;;;;;;3.90;3.35;;;;;;;16.45;100.00;97454.89;1650578;86;21406;-71
2022/09/18 06:53:37;;;;;;;4.58;3.60;;;;;;;16.47;100.00;97467.78;1651141;86;21004;-71
2022/09/18 06:56:04;;;;;;;4.60;3.95;;;;;;;16.51;100.00;97475.47;1650593;87;21005;-71
2022/09/18 06:58:33;;;;;;;4.70;4.08;;;;;;;16.54;100.00;97480.82;1650778;86;21509;-72
2022/09/18 07:01:00;;;;;;;5.50;3.55;;;;;;;16.57;100.00;97484.17;1650714;86;21163;-68
2022/09/18 07:03:28;;;;;;;8.88;3.40;;;;;;;16.61;100.00;97475.80;1653653;86;21399;-68
2022/09/18 07:05:59;;;;;;;4.28;3.87;;;;;;;16.61;100.00;97477.98;1658244;86;21020;-69
2022/09/18 07:08:31;;;;;;;4.60;4.05;;;;;;;16.61;100.00;97476.59;1657903;86;20904;-71
2022/09/18 07:11:01;;;;;;;13.83;4.20;;;;;;;16.61;100.00;97475.80;1658070;86;20992;-70
2022/09/18 07:13:32;;;;;;;7.70;3.12;;;;;;;16.63;100.00;97473.41;1658362;85;21782;-66
2022/09/18 07:15:59;;;;;;;3.98;3.58;;;;;;;16.61;100.00;97464.09;1657770;86;21556;-70
2022/09/18 07:18:26;;;;;;;3.95;3.30;;;;;;;16.63;100.00;97451.16;1657887;86;21469;-63
2022/09/18 07:20:54;;;;;;;4.83;3.87;;;;;;;16.63;100.00;97449.16;1657904;86;20952;-70
2022/09/18 07:23:24;;;;;;;4.00;3.60;;;;;;;16.68;100.00;97435.43;1658220;86;21067;-71
2022/09/18 07:25:52;;;;;;;4.22;3.83;;;;;;;16.72;100.00;97425.67;1657770;86;21271;-68
2022/09/18 07:28:19;;;;;;;4.60;3.77;;;;;;;16.76;100.00;97423.03;1657854;86;20952;-70
2022/09/18 07:30:50;;;;;;;3.30;3.00;;;;;;;16.79;100.00;97420.02;1658063;86;20964;-71
2022/09/18 07:33:21;;;;;;;7.80;4.25;;;;;;;16.79;100.00;97422.20;1662888;85;20976;-70
2022/09/18 07:35:48;;;;;;;4.30;3.85;;;;;;;16.82;100.00;97419.80;1657898;86;20992;-71
2022/09/18 07:38:17;;;;;;;3.55;3.15;;;;;;;16.85;100.00;97421.75;1657951;86;21209;-68
2022/09/18 07:40:46;;;;;;;5.67;3.75;;;;;;;16.94;100.00;97417.86;1657388;86;21528;-65
2022/09/18 07:43:15;;;;;;;3.98;3.12;;;;;;;17.01;100.00;97415.00;1658367;86;20959;-68
2022/09/18 07:45:44;;;;;;;7.35;3.45;;;;;;;17.02;100.00;97420.77;1657916;86;21079;-71
2022/09/18 07:48:13;;;;;;;3.58;3.27;;;;;;;17.09;100.00;97421.88;1658056;85;21430;-70
2022/09/18 07:50:41;;;;;;;4.12;3.45;;;;;;;17.07;100.00;97427.06;1658142;86;21158;-70
2022/09/18 07:53:09;;;;;;;4.58;3.35;;;;;;;17.07;100.00;97431.24;1657880;86;21075;-69
2022/09/18 07:55:38;;;;;;;4.83;4.08;;;;;;;17.02;100.00;97427.73;1657828;86;21523;-66
2022/09/18 07:58:06;;;;;;;5.33;3.83;;;;;;;16.99;100.00;97434.09;1657836;86;20979;-68
2022/09/18 08:00:36;;;;;;;5.28;3.75;;;;;;;16.97;100.00;97428.18;1658086;86;21084;-70
2022/09/18 08:03:06;;;;;;;4.67;3.83;;;;;;;16.98;100.00;97435.91;1656798;86;22155;-70
2022/09/18 08:05:38;;;;;;;5.25;3.62;;;;;;;16.98;100.00;97435.31;1650643;86;20972;-69
2022/09/18 08:08:12;;;;;;;4.03;3.45;;;;;;;16.99;100.00;97431.31;1650770;87;21015;-72
2022/09/18 08:10:42;;;;;;;4.62;3.42;;;;;;;17.03;100.00;97435.45;1651506;86;20968;-71
2022/09/18 08:13:11;;;;;;;5.90;4.03;;;;;;;17.07;100.00;97435.41;1651103;86;21000;-70
2022/09/18 08:15:45;;;;;;;6.37;3.80;;;;;;;17.10;100.00;97425.67;1651093;86;21222;-72
2022/09/18 08:18:26;;;;;;;9.75;3.77;;;;;;;17.10;100.00;97430.44;1650773;86;21459;-71
2022/09/18 08:21:00;;;;;;;6.28;3.65;;;;;;;17.13;100.00;97425.42;1651179;86;20889;-68
2022/09/18 08:23:34;;;;;;;3.90;3.50;;;;;;;17.18;100.00;97413.84;1650814;86;21045;-73
2022/09/18 08:26:05;;;;;;;5.22;3.52;;;;;;;17.19;100.00;97402.12;1650973;86;21064;-73
2022/09/18 08:28:33;;;;;;;3.80;3.42;;;;;;;17.23;100.00;97399.47;1650907;87;21289;-73
2022/09/18 08:31:03;;;;;;;5.67;3.75;;;;;;;17.21;100.00;97394.95;1650754;86;20940;-72
2022/09/18 08:33:31;;;;;;;3.83;3.47;;;;;;;17.25;100.00;97404.02;1654210;86;20975;-73
2022/09/18 08:36:01;;;;;;;4.60;3.30;;;;;;;17.34;100.00;97397.95;1650914;86;20992;-72
2022/09/18 08:38:32;;;;;;;4.45;3.15;;;;;;;17.40;100.00;97392.09;1650861;86;20961;-72
2022/09/18 08:41:54;;;;;;;4.35;3.92;;;;;;;17.43;100.00;97391.88;1650645;86;20996;-73
2022/09/18 08:44:27;;;;;;;3.77;3.40;;;;;;;17.42;100.00;97386.73;1653026;86;21571;-73
2022/09/18 08:47:21;;;;;;;3.50;3.02;;;;;;;17.34;100.00;97395.16;1624849;87;21016;-70
2022/09/18 08:50:12;;;;;;;2.90;2.70;;;;;;;17.36;100.00;97385.01;1650634;86;21000;-71
2022/09/18 08:52:42;;;;;;;4.17;3.35;;;;;;;17.33;100.00;97377.50;1620499;87;21466;-73
2022/09/18 08:55:34;;;;;;;4.80;3.25;;;;;;;17.38;100.00;97363.12;1650689;86;21263;-74
2022/09/18 08:58:27;;;;;;;6.08;2.85;;;;;;;17.44;100.00;97357.26;1650752;87;21491;-70
2022/09/18 09:01:02;;;;;;;2.37;2.17;;;;;;;17.41;100.00;97359.49;1650775;87;20948;-72
2022/09/18 09:03:52;;;;;;;2.92;2.62;;;;;;;17.50;100.00;97363.16;1634134;86;21020;-69
2022/09/18 09:06:43;;;;;;;2.42;2.17;;;;;;;17.56;100.00;97356.48;1659463;86;20896;-71
2022/09/18 09:09:49;;;;;;;3.12;2.83;;;;;;;17.61;100.00;97356.02;1660330;86;21573;-70
2022/09/18 09:12:37;;;;;;;4.30;3.20;;;;;;;17.67;100.00;97346.59;1659929;86;20861;-70
2022/09/18 09:15:14;;;;;;;2.47;2.27;;;;;;;17.63;100.00;97346.05;1660320;86;20983;-74
2022/09/18 09:18:18;;;;;;;4.92;3.58;;;;;;;17.68;100.00;97337.82;1660118;86;20956;-72
2022/09/18 09:20:53;;;;;;;4.80;3.87;;;;;;;17.78;100.00;97327.72;1660234;86;21012;-72
2022/09/18 09:23:56;;;;;;;6.12;2.62;;;;;;;17.84;100.00;97337.78;1634194;86;21488;-72
2022/09/18 09:26:36;;;;;;;3.10;2.80;;;;;;;17.90;100.00;97336.08;1606681;86;21504;-73
2022/09/18 09:29:34;;;;;;;3.75;3.02;;;;;;;18.03;100.00;97326.53;1659723;86;21023;-74
2022/09/18 09:32:27;;;;;;;3.27;2.95;;;;;;;18.05;100.00;97310.78;1659955;86;20937;-72
2022/09/18 09:35:28;;;;;;;5.42;4.17;;;;;;;18.03;100.00;97307.62;1623223;86;21044;-73
2022/09/18 09:38:26;;;;;;;7.87;5.90;;;;;;;18.05;100.00;97312.17;1654863;86;21357;-71
2022/09/18 09:40:53;;;;;;;11.05;7.65;;;;;;;18.11;100.00;97313.25;1652989;86;21012;-71
2022/09/18 09:43:40;;;;;;;9.33;7.58;;;;;;;18.16;100.00;97310.01;1655894;86;21013;-71
2022/09/18 09:46:35;;;;;;;8.48;6.62;;;;;;;18.18;100.00;97311.77;1659919;86;20976;-68
2022/09/18 09:49:09;;;;;;;9.05;6.55;;;;;;;18.23;100.00;97320.23;1660241;86;21421;-70
2022/09/18 09:51:57;;;;;;;8.08;6.90;;;;;;;18.29;100.00;97317.76;1660047;86;21928;-72
2022/09/18 09:54:28;;;;;;;7.97;5.67;;;;;;;18.33;100.00;97327.63;1629700;86;20988;-72
2022/09/18 09:57:29;;;;;;;5.50;4.90;;;;;;;18.30;100.00;97328.48;1633789;86;21300;-73
2022/09/18 10:00:13;;;;;;;4.60;4.20;;;;;;;18.40;100.00;97316.95;1659944;86;21075;-73
2022/09/18 10:03:15;;;;;;;5.60;4.97;;;;;;;18.45;100.00;97319.23;1659868;86;20969;-68
2022/09/18 10:05:54;;;;;;;5.83;5.22;;;;;;;18.46;100.00;97310.25;1644359;87;21635;-72
2022/09/18 10:08:34;;;;;;;6.45;4.75;;;;;;;18.39;100.00;97311.17;1646350;87;20977;-68
2022/09/18 10:11:07;;;;;;;5.75;5.22;;;;;;;18.41;100.00;97316.34;1646132;87;20882;-70
2022/09/18 10:13:53;;;;;;;6.37;5.40;;;;;;;18.54;100.00;97312.31;1646292;87;21068;-71
2022/09/18 10:16:27;;;;;;;5.03;4.50;;;;;;;18.54;100.00;97315.09;1646316;87;20937;-72
2022/09/18 10:18:55;;;;;;;6.67;4.83;;;;;;;18.48;100.00;97318.37;1646252;87;21265;-70
2022/09/18 10:21:30;;;;;;;7.20;5.65;;;;;;;18.54;100.00;97318.68;1646052;87;21008;-65
2022/09/18 10:24:28;;;;;;;5.67;5.10;;;;;;;18.51;100.00;97311.77;1646529;87;21590;-73
2022/09/18 10:27:02;;;;;;;6.72;6.05;;;;;;;18.42;100.00;97317.31;1646358;86;21555;-72
2022/09/18 10:29:31;;;;;;;7.03;6.10;;;;;;;18.45;100.00;97317.05;1646137;87;20910;-72
2022/09/18 10:32:00;;;;;;;7.80;5.72;;;;;;;18.44;100.00;97316.25;1646041;87;39378;-71
2022/09/18 10:34:48;;;;;;;7.55;6.35;;;;;;;18.43;100.00;97321.66;1645852;87;21446;-71
2022/09/18 10:37:33;;;;;;;7.05;6.35;;;;;;;18.42;100.00;97323.48;1646090;87;21012;-72
2022/09/18 10:40:06;;;;;;;9.98;6.75;;;;;;;18.39;100.00;97313.95;1646118;87;21624;-71
2022/09/18 10:42:36;;;;;;;7.92;6.30;;;;;;;18.48;100.00;97298.86;1646218;87;21108;-69
2022/09/18 10:45:24;;;;;;;6.37;5.78;;;;;;;18.41;100.00;97304.56;1645719;87;21169;-71
2022/09/18 10:48:12;;;;;;;7.08;5.92;;;;;;;18.42;100.00;97302.58;1646112;87;21049;-66
2022/09/18 10:51:01;;;;;;;6.83;5.65;;;;;;;18.48;100.00;97309.22;1646081;87;20966;-71
2022/09/18 10:53:41;;;;;;;7.33;6.53;;;;;;;18.36;100.00;97306.45;1646093;86;21034;-69
2022/09/18 10:56:18;;;;;;;7.50;6.37;;;;;;;18.30;100.00;97311.75;1645677;87;21601;-71
2022/09/18 10:58:46;;;;;;;10.63;6.72;;;;;;;18.32;100.00;97300.17;1646138;87;21881;-70
2022/09/18 11:01:12;;;;;;;6.87;6.17;;;;;;;18.29;100.00;97291.28;1646116;86;21439;-66
2022/09/18 11:03:58;;;;;;;7.35;6.60;;;;;;;18.25;100.00;97292.11;1646022;87;20949;-70
2022/09/18 11:06:29;;;;;;;7.37;6.67;;;;;;;18.37;100.00;97296.90;1628283;87;21049;-71
2022/09/18 11:09:01;;;;;;;8.13;7.33;;;;;;;18.33;100.00;97287.80;1646105;87;20953;-66
2022/09/18 11:11:33;;;;;;;8.83;7.45;;;;;;;18.36;100.00;97288.34;1646252;87;21474;-70
2022/09/18 11:14:08;;;;;;;9.45;7.58;;;;;;;18.31;100.00;97279.87;1645974;87;20957;-67
2022/09/18 11:16:40;;;;;;;9.38;8.48;;;;;;;18.35;100.00;97278.41;1644575;87;21493;-71
2022/09/18 11:19:30;;;;;;;10.00;8.20;;;;;;;18.43;100.00;97277.06;1626703;87;21021;-70
2022/09/18 11:22:01;;;;;;;10.43;9.33;;;;;;;18.35;100.00;97272.84;1646301;87;21016;-70
2022/09/18 11:24:33;;;;;;;11.10;7.85;;;;;;;18.24;100.00;97267.46;1646106;87;21166;-70
2022/09/18 11:27:22;;;;;;;9.68;7.78;;;;;;;18.16;100.00;97262.64;1645775;87;21116;-70
2022/09/18 11:29:52;;;;;;;8.75;7.85;;;;;;;18.22;100.00;97265.10;1646093;87;21372;-72
2022/09/18 11:32:25;;;;;;;9.00;8.15;;;;;;;18.27;100.00;97261.66;1605464;87;21038;-71
2022/09/18 11:34:56;;;;;;;8.33;7.47;;;;;;;18.32;100.00;97254.19;1646092;87;21105;-68
2022/09/18 11:37:31;;;;;;;9.03;7.92;;;;;;;18.37;100.00;97245.33;1627169;87;21113;-70
2022/09/18 11:40:07;;;;;;;7.72;6.70;;;;;;;18.40;100.00;97241.69;1645992;87;21033;-69
2022/09/18 11:42:43;;;;;;;7.45;6.75;;;;;;;18.46;100.00;97239.16;1626692;87;20953;-64
2022/09/18 11:45:32;;;;;;;6.70;6.10;;;;;;;18.46;100.00;97232.20;1645997;87;21485;-65
2022/09/18 11:48:13;;;;;;;7.53;6.72;;;;;;;18.52;100.00;97231.09;1646045;87;21044;-69
2022/09/18 11:50:41;;;;;;;7.33;6.62;;;;;;;18.55;100.00;97224.05;1646057;87;21439;-71
2022/09/18 11:53:35;;;;;;;10.38;6.65;;;;;;;18.69;100.00;97213.81;1646150;87;21336;-68
2022/09/18 11:56:24;;;;;;;7.67;6.55;;;;;;;18.70;100.00;97200.83;1637069;87;21530;-71